createdAt,value
2022-11-29T00:01:14.948Z,22.67
2022-11-29T00:03:43.232Z,23.37
2022-11-29T00:06:13.336Z,22.43
2022-11-29T00:08:42.248Z,20.87
2022-11-29T00:11:11.652Z,25.13
2022-11-29T00:13:41.282Z,22.13
2022-11-29T00:16:10.575Z,24.00
2022-11-29T00:18:39.132Z,22.03
2022-11-29T00:21:07.715Z,22.63
2022-11-29T00:23:36.243Z,19.80
2022-11-29T00:26:05.324Z,22.13
2022-11-29T00:28:33.525Z,24.63
2022-11-29T00:31:03.375Z,28.77
2022-11-29T00:33:31.901Z,18.43
2022-11-29T00:36:02.405Z,18.53
2022-11-29T00:38:30.743Z,21.83
2022-11-29T00:40:59.168Z,25.47
2022-11-29T00:43:27.484Z,25.80
2022-11-29T00:45:55.737Z,16.40
2022-11-29T00:48:25.387Z,22.03
2022-11-29T00:50:53.665Z,24.70
2022-11-29T00:53:21.878Z,24.13
2022-11-29T00:55:50.382Z,25.10
2022-11-29T00:58:18.646Z,14.20
2022-11-29T01:00:47.525Z,25.20
2022-11-29T01:03:16.201Z,33.37
2022-11-29T01:05:45.991Z,27.03
2022-11-29T01:08:15.079Z,23.50
2022-11-29T01:10:43.604Z,24.40
2022-11-29T01:13:12.162Z,21.60
2022-11-29T01:15:40.525Z,22.70
2022-11-29T01:18:09.912Z,25.20
2022-11-29T01:20:38.146Z,26.37
2022-11-29T01:23:07.724Z,23.90
2022-11-29T01:25:35.969Z,27.00
2022-11-29T01:28:04.225Z,22.63
2022-11-29T01:30:32.526Z,28.53
2022-11-29T01:33:00.733Z,31.43
2022-11-29T01:35:28.987Z,34.63
2022-11-29T01:37:57.328Z,22.10
2022-11-29T01:40:26.877Z,24.73
2022-11-29T01:42:55.037Z,19.47
2022-11-29T01:45:24.521Z,21.80
2022-11-29T01:47:53.977Z,24.20
2022-11-29T01:50:22.263Z,30.07
2022-11-29T01:52:50.675Z,21.53
2022-11-29T01:55:19.077Z,20.13
2022-11-29T01:57:48.884Z,23.60
2022-11-29T02:00:18.371Z,22.93
2022-11-29T02:02:49.067Z,21.00
2022-11-29T02:05:18.816Z,25.07
2022-11-29T02:07:48.002Z,30.63
2022-11-29T02:10:16.940Z,25.80
2022-11-29T02:12:52.511Z,25.13
2022-11-29T02:15:27.595Z,27.60
2022-11-29T02:18:02.601Z,24.33
2022-11-29T02:20:45.753Z,22.80
2022-11-29T02:23:22.480Z,27.70
2022-11-29T02:25:59.735Z,20.30
2022-11-29T02:28:42.935Z,21.00
2022-11-29T02:31:29.664Z,26.53
2022-11-29T02:34:12.789Z,24.90
2022-11-29T02:36:47.873Z,23.60
2022-11-29T02:39:24.949Z,22.47
2022-11-29T02:42:13.351Z,19.40
2022-11-29T02:44:50.755Z,25.03
2022-11-29T02:47:26.336Z,25.50
2022-11-29T02:50:02.646Z,29.03
2022-11-29T02:52:36.108Z,22.70
2022-11-29T02:55:08.767Z,28.07
2022-11-29T02:57:40.027Z,28.63
2022-11-29T03:00:10.126Z,25.37
2022-11-29T03:02:42.481Z,23.33
2022-11-29T03:05:14.031Z,28.23
2022-11-29T03:07:49.157Z,21.23
2022-11-29T03:10:22.820Z,26.77
2022-11-29T03:12:52.029Z,35.03
2022-11-29T03:15:24.678Z,25.73
2022-11-29T03:17:59.215Z,19.40
2022-11-29T03:20:34.385Z,24.60
2022-11-29T03:23:24.361Z,29.50
2022-11-29T03:25:56.855Z,26.43
2022-11-29T03:28:27.767Z,24.77
2022-11-29T03:30:59.184Z,25.37
2022-11-29T03:33:32.957Z,26.90
2022-11-29T03:36:03.613Z,30.17
2022-11-29T03:38:38.474Z,29.40
2022-11-29T03:41:09.769Z,21.83
2022-11-29T03:43:42.356Z,23.93
2022-11-29T03:46:13.158Z,30.57
2022-11-29T03:48:44.562Z,26.40
2022-11-29T03:51:15.760Z,25.33
2022-11-29T03:53:48.101Z,24.00
2022-11-29T03:56:25.568Z,26.67
2022-11-29T03:58:56.445Z,29.60
2022-11-29T04:01:35.547Z,30.20
2022-11-29T04:04:18.698Z,29.23
2022-11-29T04:06:53.219Z,28.63
2022-11-29T04:09:36.738Z,26.67
2022-11-29T04:12:19.860Z,25.37
2022-11-29T04:15:15.435Z,24.63
2022-11-29T04:17:57.208Z,16.53
2022-11-29T04:20:40.390Z,20.60
2022-11-29T04:23:32.657Z,30.43
2022-11-29T04:26:22.966Z,34.20
2022-11-29T04:29:12.898Z,28.10
2022-11-29T04:31:45.109Z,32.17
2022-11-29T04:34:28.719Z,24.47
2022-11-29T04:37:20.977Z,30.63
2022-11-29T04:40:04.106Z,27.60
2022-11-29T04:43:05.618Z,29.27
2022-11-29T04:46:04.749Z,31.10
2022-11-29T04:48:39.918Z,25.97
2022-11-29T04:51:12.104Z,30.93
2022-11-29T04:53:55.182Z,32.47
2022-11-29T04:56:27.454Z,32.60
2022-11-29T04:58:59.496Z,29.33
2022-11-29T05:01:32.453Z,29.90
2022-11-29T05:04:04.321Z,35.33
2022-11-29T05:06:36.701Z,26.57
2022-11-29T05:09:08.807Z,31.33
2022-11-29T05:11:43.078Z,32.80
2022-11-29T05:14:15.055Z,29.60
2022-11-29T05:16:48.480Z,30.20
2022-11-29T05:19:22.057Z,32.00
2022-11-29T05:21:54.646Z,33.77
2022-11-29T05:24:29.702Z,30.60
2022-11-29T05:27:02.705Z,29.13
2022-11-29T05:29:32.531Z,27.97
2022-11-29T05:32:06.566Z,36.17
2022-11-29T05:35:02.125Z,31.17
2022-11-29T05:37:34.267Z,30.10
2022-11-29T05:40:10.113Z,42.93
2022-11-29T05:42:53.092Z,28.90
2022-11-29T05:45:25.488Z,43.90
2022-11-29T05:47:58.492Z,38.60
2022-11-29T05:50:31.981Z,37.73
2022-11-29T05:53:03.877Z,48.83
2022-11-29T05:55:37.378Z,33.50
2022-11-29T05:58:14.587Z,34.70
2022-11-29T06:00:48.787Z,44.37
2022-11-29T06:03:21.559Z,33.17
2022-11-29T06:05:53.646Z,34.33
2022-11-29T06:08:24.721Z,31.57
2022-11-29T06:11:00.840Z,46.30
2022-11-29T06:13:34.180Z,48.30
2022-11-29T06:16:15.464Z,41.33
2022-11-29T06:18:54.558Z,47.23
2022-11-29T06:21:28.620Z,29.40
2022-11-29T06:24:25.738Z,48.20
2022-11-29T06:27:10.435Z,53.90
2022-11-29T06:29:44.791Z,46.97
2022-11-29T06:32:21.646Z,58.57
2022-11-29T06:34:56.103Z,39.07
2022-11-29T06:37:27.472Z,51.10
2022-11-29T06:39:56.302Z,46.73
2022-11-29T06:42:24.607Z,17.70
2022-11-29T06:44:53.079Z,34.60
2022-11-29T06:47:26.009Z,41.93
2022-11-29T06:49:58.109Z,37.40
2022-11-29T06:52:30.348Z,46.03
2022-11-29T06:55:05.211Z,38.53
2022-11-29T06:57:38.212Z,59.90
2022-11-29T07:00:11.601Z,50.47
2022-11-29T07:02:51.052Z,52.20
2022-11-29T07:05:24.766Z,34.13
2022-11-29T07:07:54.785Z,51.93
2022-11-29T07:10:25.040Z,47.90
2022-11-29T07:12:53.670Z,65.73
2022-11-29T07:15:23.175Z,52.17
2022-11-29T07:17:59.729Z,59.20
2022-11-29T07:20:33.191Z,53.50
2022-11-29T07:23:04.882Z,54.10
2022-11-29T07:25:39.824Z,62.27
2022-11-29T07:28:13.452Z,57.10
2022-11-29T07:30:45.388Z,51.67
2022-11-29T07:33:18.859Z,48.70
2022-11-29T07:35:52.106Z,55.07
2022-11-29T07:38:22.733Z,66.83
2022-11-29T07:40:54.809Z,64.63
2022-11-29T07:43:29.299Z,44.20
2022-11-29T07:45:58.333Z,41.07
2022-11-29T07:48:26.896Z,58.23
2022-11-29T07:50:56.582Z,58.07
2022-11-29T07:53:24.988Z,59.40
2022-11-29T07:55:53.518Z,58.00
2022-11-29T07:58:23.562Z,62.40
2022-11-29T08:00:51.975Z,61.27
2022-11-29T08:03:21.365Z,66.00
2022-11-29T08:05:50.733Z,64.20
2022-11-29T08:08:20.313Z,67.77
2022-11-29T08:10:48.586Z,64.63
2022-11-29T08:13:16.783Z,83.33
2022-11-29T08:15:45.988Z,63.80
2022-11-29T08:18:14.404Z,49.63
2022-11-29T08:20:42.717Z,73.40
2022-11-29T08:23:12.540Z,70.97
2022-11-29T08:25:42.530Z,69.53
2022-11-29T08:28:11.068Z,66.73
2022-11-29T08:30:39.896Z,81.57
2022-11-29T08:33:08.278Z,68.23
2022-11-29T08:35:36.931Z,69.73
2022-11-29T08:38:05.366Z,70.13
2022-11-29T08:40:33.627Z,64.97
2022-11-29T08:43:03.325Z,76.97
2022-11-29T08:45:31.617Z,80.73
2022-11-29T08:47:59.859Z,48.17
2022-11-29T08:50:28.140Z,74.93
2022-11-29T08:53:22.491Z,81.27
2022-11-29T08:55:50.804Z,79.70
2022-11-29T08:58:21.607Z,71.27
2022-11-29T09:00:49.908Z,75.27
2022-11-29T09:03:35.721Z,80.97
2022-11-29T09:06:11.961Z,41.87
2022-11-29T09:08:43.642Z,50.23
2022-11-29T09:11:13.483Z,92.67
2022-11-29T09:13:43.310Z,85.67
2022-11-29T09:16:12.781Z,58.80
2022-11-29T09:18:42.572Z,107.00
2022-11-29T09:21:13.272Z,85.67
2022-11-29T09:23:42.615Z,82.40
2022-11-29T09:26:11.868Z,86.13
2022-11-29T09:28:40.206Z,88.60
2022-11-29T09:31:10.857Z,82.90
2022-11-29T09:33:39.768Z,101.87
2022-11-29T09:36:08.652Z,90.27
2022-11-29T09:38:37.244Z,64.87
2022-11-29T09:41:10.741Z,73.40
2022-11-29T09:43:45.208Z,89.50
2022-11-29T09:46:20.967Z,99.33
2022-11-29T09:48:57.540Z,93.30
2022-11-29T09:51:30.285Z,81.33
2022-11-29T09:54:04.452Z,126.83
2022-11-29T09:56:34.667Z,119.00
2022-11-29T09:59:04.938Z,140.33
2022-11-29T10:01:36.762Z,97.43
2022-11-29T10:04:07.235Z,109.53
2022-11-29T10:06:38.735Z,85.63
2022-11-29T10:09:09.779Z,123.10
2022-11-29T10:11:40.502Z,89.57
2022-11-29T10:14:13.741Z,109.40
2022-11-29T10:16:45.986Z,114.17
2022-11-29T10:19:20.138Z,139.37
2022-11-29T10:21:55.172Z,71.23
2022-11-29T10:24:24.852Z,127.03
2022-11-29T10:26:54.235Z,75.10
2022-11-29T10:29:23.282Z,107.80
2022-11-29T10:31:56.732Z,125.73
2022-11-29T10:34:26.327Z,129.20
2022-11-29T10:36:58.739Z,85.83
2022-11-29T10:39:31.592Z,137.50
2022-11-29T10:42:03.099Z,138.87
2022-11-29T10:44:33.223Z,131.50
2022-11-29T10:47:09.260Z,117.53
2022-11-29T10:49:40.222Z,129.37
2022-11-29T10:52:12.678Z,134.40
2022-11-29T10:54:42.850Z,116.10
2022-11-29T10:57:15.387Z,112.17
2022-11-29T10:59:43.883Z,97.87
2022-11-29T11:02:20.070Z,88.77
2022-11-29T11:04:50.155Z,107.53
2022-11-29T11:07:24.278Z,113.33
2022-11-29T11:09:53.661Z,112.47
2022-11-29T11:12:23.872Z,111.13
2022-11-29T11:14:52.106Z,92.60
2022-11-29T11:17:25.976Z,115.57
2022-11-29T11:19:58.774Z,121.70
2022-11-29T11:22:27.893Z,100.73
2022-11-29T11:25:00.564Z,116.80
2022-11-29T11:27:33.534Z,127.23
2022-11-29T11:30:02.574Z,111.57
2022-11-29T11:32:32.285Z,130.23
2022-11-29T11:35:01.344Z,92.77
2022-11-29T11:37:30.412Z,118.27
2022-11-29T11:39:59.190Z,60.80
2022-11-29T11:42:38.197Z,120.27
2022-11-29T11:45:21.382Z,112.10
2022-11-29T11:47:53.124Z,109.83
2022-11-29T11:50:28.652Z,119.77
2022-11-29T11:52:57.885Z,101.40
2022-11-29T11:55:31.665Z,104.87
2022-11-29T11:58:07.670Z,127.97
2022-11-29T12:03:42.311Z,108.77
2022-11-29T12:06:19.290Z,109.37
2022-11-29T12:08:49.422Z,113.77
2022-11-29T12:11:18.786Z,115.70
2022-11-29T12:13:48.742Z,99.00
2022-11-29T12:16:27.260Z,130.50
2022-11-29T12:19:00.287Z,66.20
2022-11-29T12:21:32.228Z,117.40
2022-11-29T12:24:02.172Z,94.97
2022-11-29T12:26:56.588Z,69.90
2022-11-29T12:29:22.306Z,92.67
2022-11-29T12:31:57.868Z,95.00
2022-11-29T12:34:43.532Z,66.73
2022-11-29T12:37:14.620Z,67.90
2022-11-29T12:39:52.382Z,68.37
2022-11-29T12:42:27.217Z,60.00
2022-11-29T12:44:58.795Z,50.43
2022-11-29T12:47:36.760Z,36.07
2022-11-29T12:50:12.678Z,44.87
2022-11-29T12:52:43.487Z,31.20
2022-11-29T12:55:19.496Z,36.93
2022-11-29T12:57:53.413Z,36.33
2022-11-29T13:00:22.218Z,39.03
2022-11-29T13:02:58.488Z,29.20
2022-11-29T13:05:34.248Z,23.27
2022-11-29T13:08:09.865Z,33.07
2022-11-29T13:10:45.238Z,21.73
2022-11-29T13:13:19.426Z,33.27
2022-11-29T13:15:50.278Z,29.47
2022-11-29T13:18:24.609Z,24.27
2022-11-29T13:20:59.733Z,26.17
2022-11-29T13:23:45.775Z,22.30
2022-11-29T13:26:20.264Z,27.70
2022-11-29T13:28:48.640Z,32.13
2022-11-29T13:31:20.152Z,26.57
2022-11-29T13:33:57.255Z,29.90
2022-11-29T13:36:30.984Z,30.50
2022-11-29T13:39:04.466Z,29.03
2022-11-29T13:41:34.122Z,29.73
2022-11-29T13:44:07.976Z,29.90
2022-11-29T13:46:39.308Z,26.33
2022-11-29T13:49:07.785Z,36.63
2022-11-29T13:51:38.106Z,33.43
2022-11-29T13:54:07.550Z,37.30
2022-11-29T13:56:42.999Z,37.00
2022-11-29T13:59:18.222Z,33.03
2022-11-29T14:01:48.144Z,27.23
2022-11-29T14:04:24.535Z,37.53
2022-11-29T14:07:03.213Z,35.30
2022-11-29T14:09:35.150Z,29.80
2022-11-29T14:12:06.260Z,34.10
2022-11-29T14:14:37.390Z,29.53
2022-11-29T14:17:06.680Z,35.77
2022-11-29T14:19:35.732Z,33.83
2022-11-29T14:22:19.020Z,29.47
2022-11-29T14:24:58.428Z,30.80
2022-11-29T14:27:45.295Z,38.47
2022-11-29T14:30:28.401Z,30.00
2022-11-29T14:33:01.698Z,29.00
2022-11-29T14:35:32.439Z,24.97
2022-11-29T14:38:06.292Z,39.57
2022-11-29T14:40:36.773Z,37.30
2022-11-29T14:43:05.977Z,37.80
2022-11-29T14:45:35.631Z,31.07
2022-11-29T14:48:04.037Z,49.53
2022-11-29T14:50:36.460Z,37.20
2022-11-29T14:53:07.327Z,31.17
2022-11-29T14:55:37.406Z,29.67
2022-11-29T14:58:07.845Z,36.33
2022-11-29T15:00:54.343Z,41.10
2022-11-29T15:03:26.231Z,44.30
2022-11-29T15:05:58.321Z,55.87
2022-11-29T15:08:32.221Z,44.93
2022-11-29T15:11:02.874Z,50.60
2022-11-29T15:13:32.270Z,50.60
2022-11-29T15:16:16.151Z,50.57
2022-11-29T15:19:13.157Z,48.87
2022-11-29T15:21:44.995Z,39.47
2022-11-29T15:24:15.148Z,58.57
2022-11-29T15:26:56.517Z,49.90
2022-11-29T15:29:24.895Z,49.70
2022-11-29T15:31:54.882Z,51.07
2022-11-29T15:34:25.265Z,55.67
2022-11-29T15:36:53.533Z,46.50
2022-11-29T15:39:27.660Z,57.03
2022-11-29T15:42:01.042Z,55.07
2022-11-29T15:44:31.819Z,42.83
2022-11-29T15:47:14.858Z,42.40
2022-11-29T15:49:43.225Z,43.13
2022-11-29T15:52:20.193Z,61.80
2022-11-29T15:54:52.003Z,46.43
2022-11-29T15:57:22.919Z,44.07
2022-11-29T15:59:53.375Z,40.57
2022-11-29T16:02:23.414Z,35.33
2022-11-29T16:04:53.556Z,39.00
2022-11-29T16:07:22.703Z,31.97
2022-11-29T16:09:54.387Z,33.27
2022-11-29T16:12:22.592Z,51.00
2022-11-29T16:14:51.973Z,51.00
2022-11-29T16:17:20.681Z,35.17
2022-11-29T16:19:49.539Z,57.93
2022-11-29T16:22:19.515Z,40.67
2022-11-29T16:24:52.611Z,51.87
2022-11-29T16:27:23.584Z,39.13
2022-11-29T16:29:52.368Z,45.10
2022-11-29T16:32:26.665Z,50.63
2022-11-29T16:34:55.312Z,42.50
2022-11-29T16:37:24.550Z,58.40
2022-11-29T16:39:53.948Z,72.07
2022-11-29T16:42:26.223Z,40.63
2022-11-29T16:45:15.294Z,57.53
2022-11-29T16:47:52.804Z,41.20
2022-11-29T16:50:21.726Z,46.93
2022-11-29T16:52:54.979Z,43.03
2022-11-29T16:55:25.059Z,56.83
2022-11-29T16:57:54.742Z,72.23
2022-11-29T17:00:24.743Z,67.30
2022-11-29T17:02:52.987Z,54.43
2022-11-29T17:05:21.260Z,58.67
2022-11-29T17:07:49.994Z,62.80
2022-11-29T17:10:19.636Z,75.50
2022-11-29T17:12:48.609Z,46.63
2022-11-29T17:15:18.687Z,47.70
2022-11-29T17:17:47.087Z,51.33
2022-11-29T17:20:15.688Z,41.00
2022-11-29T17:22:43.912Z,42.50
2022-11-29T17:25:12.164Z,38.70
2022-11-29T17:27:40.411Z,45.47
2022-11-29T17:30:11.209Z,45.83
2022-11-29T17:32:40.793Z,45.27
2022-11-29T17:35:09.150Z,50.07
2022-11-29T17:37:37.500Z,47.23
2022-11-29T17:40:05.979Z,58.57
2022-11-29T17:42:35.357Z,48.00
2022-11-29T17:45:04.156Z,69.33
2022-11-29T17:47:32.440Z,50.67
2022-11-29T17:50:01.997Z,55.30
2022-11-29T17:52:30.388Z,48.47
2022-11-29T17:54:58.594Z,47.83
2022-11-29T17:57:26.873Z,44.10
2022-11-29T17:59:55.151Z,60.53
2022-11-29T18:02:23.372Z,61.37
2022-11-29T18:04:51.606Z,50.37
2022-11-29T18:07:21.292Z,50.43
2022-11-29T18:09:49.695Z,44.57
2022-11-29T18:12:18.016Z,52.47
2022-11-29T18:14:46.198Z,49.07
2022-11-29T18:17:14.499Z,40.07
2022-11-29T18:19:42.956Z,40.67
2022-11-29T18:22:11.407Z,37.70
2022-11-29T18:24:44.165Z,43.97
2022-11-29T18:27:12.473Z,51.07
2022-11-29T18:29:40.697Z,44.43
2022-11-29T18:32:08.890Z,53.03
2022-11-29T18:34:38.199Z,43.73
2022-11-29T18:37:08.858Z,45.80
2022-11-29T18:39:42.005Z,44.37
2022-11-29T18:42:10.201Z,44.00
2022-11-29T18:44:38.463Z,55.20
2022-11-29T18:47:07.752Z,47.57
2022-11-29T18:49:35.976Z,40.90
2022-11-29T18:52:04.207Z,35.23
2022-11-29T18:54:32.439Z,38.77
2022-11-29T18:57:02.019Z,48.37
2022-11-29T18:59:30.255Z,51.27
2022-11-29T19:01:58.431Z,42.47
2022-11-29T19:04:27.894Z,48.40
2022-11-29T19:06:56.080Z,42.70
2022-11-29T19:09:24.383Z,43.37
2022-11-29T19:11:52.710Z,43.90
2022-11-29T19:14:22.257Z,40.57
2022-11-29T19:16:51.086Z,37.50
2022-11-29T19:19:19.798Z,40.63
2022-11-29T19:21:48.111Z,42.00
2022-11-29T19:24:17.922Z,43.43
2022-11-29T19:26:47.006Z,46.00
2022-11-29T19:29:15.840Z,43.17
2022-11-29T19:31:45.387Z,38.30
2022-11-29T19:34:13.608Z,40.20
2022-11-29T19:36:44.151Z,35.60
2022-11-29T19:39:13.882Z,41.77
2022-11-29T19:41:43.015Z,41.00
2022-11-29T19:44:11.328Z,42.57
2022-11-29T19:46:40.408Z,42.20
2022-11-29T19:49:10.585Z,43.03
2022-11-29T19:51:38.823Z,46.53
2022-11-29T19:54:08.092Z,42.10
2022-11-29T19:56:36.502Z,46.07
2022-11-29T19:59:04.850Z,49.00
2022-11-29T20:01:40.758Z,50.50
2022-11-29T20:04:11.472Z,45.57
2022-11-29T20:06:39.840Z,43.87
2022-11-29T20:09:08.160Z,41.70
2022-11-29T20:11:36.467Z,36.23
2022-11-29T20:14:05.807Z,42.53
2022-11-29T20:16:34.582Z,38.40
2022-11-29T20:19:02.815Z,34.97
2022-11-29T20:21:33.720Z,30.50
2022-11-29T20:24:03.190Z,38.43
2022-11-29T20:26:32.197Z,30.27
2022-11-29T20:29:01.736Z,34.07
2022-11-29T20:31:30.293Z,41.67
2022-11-29T20:33:58.851Z,37.97
2022-11-29T20:36:35.318Z,38.20
2022-11-29T20:39:07.912Z,38.97
2022-11-29T20:41:39.828Z,43.03
2022-11-29T20:44:08.190Z,35.93
2022-11-29T20:46:36.673Z,38.23
2022-11-29T20:49:06.752Z,41.57
2022-11-29T20:51:38.941Z,36.90
2022-11-29T20:54:07.147Z,41.50
2022-11-29T20:56:35.356Z,34.37
2022-11-29T20:59:03.599Z,37.57
2022-11-29T21:01:31.947Z,48.03
2022-11-29T21:04:00.344Z,41.30
2022-11-29T21:06:28.666Z,50.27
2022-11-29T21:08:58.246Z,37.93
2022-11-29T21:11:26.647Z,36.83
2022-11-29T21:13:55.032Z,33.80
2022-11-29T21:16:28.571Z,30.33
2022-11-29T21:18:58.624Z,37.90
2022-11-29T21:21:31.359Z,32.50
2022-11-29T21:24:05.229Z,36.97
2022-11-29T21:26:41.327Z,38.90
2022-11-29T21:29:15.520Z,41.00
2022-11-29T21:31:44.065Z,33.47
2022-11-29T21:34:12.690Z,39.80
2022-11-29T21:36:41.118Z,34.93
2022-11-29T21:39:13.330Z,37.30
2022-11-29T21:41:43.971Z,35.77
2022-11-29T21:44:12.227Z,35.43
2022-11-29T21:46:40.431Z,35.33
2022-11-29T21:49:10.138Z,27.30
2022-11-29T21:51:38.358Z,30.37
2022-11-29T21:54:06.572Z,31.57
2022-11-29T21:56:36.196Z,46.17
2022-11-29T21:59:04.423Z,37.93
2022-11-29T22:01:33.675Z,32.27
2022-11-29T22:04:02.094Z,39.37
2022-11-29T22:06:30.395Z,42.13
2022-11-29T22:08:59.847Z,44.57
2022-11-29T22:11:35.401Z,40.03
2022-11-29T22:14:14.763Z,36.53
2022-11-29T22:16:43.997Z,33.90
2022-11-29T22:19:13.309Z,37.93
2022-11-29T22:21:41.641Z,35.40
2022-11-29T22:24:10.298Z,29.87
2022-11-29T22:26:38.744Z,31.53
2022-11-29T22:29:08.506Z,44.00
2022-11-29T22:31:37.374Z,32.07
2022-11-29T22:34:05.624Z,41.40
2022-11-29T22:36:34.084Z,39.00
2022-11-29T22:39:02.409Z,41.37
2022-11-29T22:41:40.631Z,52.20
2022-11-29T22:44:10.173Z,43.20
2022-11-29T22:46:40.198Z,43.53
2022-11-29T22:49:08.500Z,42.43
2022-11-29T22:51:37.678Z,43.80
2022-11-29T22:54:06.760Z,44.17
2022-11-29T22:56:38.753Z,31.73
2022-11-29T22:59:07.276Z,27.60
2022-11-29T23:01:37.516Z,40.63
2022-11-29T23:04:07.253Z,40.27
2022-11-29T23:06:36.621Z,31.13
2022-11-29T23:09:15.962Z,47.90
2022-11-29T23:11:44.713Z,47.67
2022-11-29T23:14:13.130Z,55.90
2022-11-29T23:16:43.033Z,49.90
2022-11-29T23:19:11.444Z,31.90
2022-11-29T23:21:40.621Z,29.07
2022-11-29T23:24:09.325Z,29.77
2022-11-29T23:26:39.639Z,29.03
2022-11-29T23:29:12.010Z,34.00
2022-11-29T23:31:40.692Z,32.37
2022-11-29T23:34:10.616Z,39.57
2022-11-29T23:36:40.960Z,40.33
2022-11-29T23:39:09.542Z,40.80
2022-11-29T23:41:38.227Z,43.27
2022-11-29T23:44:06.783Z,41.83
2022-11-29T23:46:37.400Z,42.77
2022-11-29T23:49:05.748Z,42.20
2022-11-29T23:51:35.307Z,37.23
2022-11-29T23:54:03.500Z,42.47
2022-11-29T23:56:35.141Z,30.83
2022-11-29T23:59:03.434Z,57.20
